Thursday, September 20, 2018, 10:09 PM EDT
Back to Local

KORE, Orange, Orange Municipal Airport

Location: Orange, MA, United States Lat: 42.572
Local Time: 10:09 PM EDT ( 2:09 GMT) Lon: -72.278
Time Zone: US/Eastern Elev: 554 ft

Show me the last for .
Show Coded

Time T Td Feel RH Dir Speed Gust Alt SLP Vis Weather Sky Remarks
2018-09-20 21:52 61 56 - 83 130° 6 - 30.29 30.29 10 FEW055 None
2018-09-20 20:52 62 56 - 80 - Calm - 30.30 30.30 10 FEW045 SCT110 None
2018-09-20 19:52 63 55 - 75 - Calm - 30.27 30.27 10 CLR 6-hr Min Temp (8pm): 63.0°F
6-hr Max Temp (8pm): 69.1°F
2018-09-20 18:52 65 57 - 75 110° 3 - 30.27 30.27 10 OVC047 None
2018-09-20 17:52 66 55 - 67 - Calm - 30.25 30.25 10 OVC043 None
2018-09-20 16:52 67 54 - 63 120° 7 - 30.24 30.24 10 OVC035 None
2018-09-20 15:52 68 53 - 58 160° 5 - 30.24 30.23 10 OVC043 None
2018-09-20 14:52 68 54 - 60 - Calm - 30.25 30.25 10 OVC042 None
2018-09-20 14:33 67 54 - 63 Variable 5 - 30.25 - 10 SCT026 BKN036 OVC045 None
2018-09-20 14:19 67 54 - 63 70° 6 - 30.25 - 10 BKN026 OVC040 None
2018-09-20 13:52 66 53 - 63 140° 5 - 30.26 30.26 10 OVC040 6-hr Min Temp (2pm): 60.1°F
6-hr Max Temp (2pm): 66.0°F
2018-09-20 13:29 66 54 - 65 120° 5 - 30.27 - 10 SCT025 OVC042 None
2018-09-20 12:52 65 54 - 67 - Calm - 30.28 30.28 10 BKN025 OVC030 None
2018-09-20 11:52 65 53 - 65 Variable 6 - 30.27 30.27 10 BKN024 OVC030 None
2018-09-20 11:30 65 54 - 67 110° 3 - 30.28 - 10 BKN022 BKN028 OVC049 None
2018-09-20 10:52 64 54 - 69 Variable 3 - 30.29 30.29 10 SCT024 OVC046 None
2018-09-20 10:30 62 53 - 72 - Calm - 30.29 - 10 BKN026 OVC044 None
2018-09-20 10:19 62 53 - 72 - Calm - 30.29 - 10 SCT021 SCT028 OVC045 None
2018-09-20 09:52 61 52 - 72 Variable 6 - 30.28 30.28 10 OVC021 None
2018-09-20 08:52 61 52 - 72 100° 9 - 30.26 30.25 10 OVC019 None
2018-09-20 07:52 60 53 - 77 60° 5 - 30.23 30.23 10 OVC022 6-hr Min Temp (8am): 60.1°F
6-hr Max Temp (8am): 61.0°F
2018-09-20 06:52 60 54 - 80 360° 3 - 30.21 30.21 10 OVC022 None
2018-09-20 05:52 60 54 - 80 - Calm - 30.18 30.18 10 BKN021 OVC049 None
2018-09-20 05:24 60 54 - 80 40° 3 - 30.17 - 10 SCT022 BKN036 OVC047 None
2018-09-20 04:52 60 54 - 80 40° 5 - 30.17 30.16 10 OVC022 None
2018-09-20 04:10 60 54 - 80 60° 3 - 30.16 - 10 BKN019 OVC036 None
2018-09-20 03:52 60 54 - 80 60° 3 - 30.16 30.16 10 OVC035 None
2018-09-20 02:52 60 53 - 77 50° 6 - 30.16 30.16 10 FEW018 OVC033 None
2018-09-20 02:05 61 54 - 77 20° 5 - 30.15 - 10 FEW018 OVC030 None
2018-09-20 01:52 61 54 - 77 50° 5 - 30.15 30.14 10 SCT015 OVC029 6-hr Min Temp (2am): 61.0°F
6-hr Max Temp (2am): 64.9°F
2018-09-20 01:49 61 54 - 77 60° 6 - 30.14 - 10 SCT015 OVC029 None
2018-09-20 01:04 61 56 - 83 80° 5 - 30.13 - 10 BKN014 OVC022 None
2018-09-20 00:52 61 55 - 80 70° 5 - 30.14 30.13 10 FEW014 OVC021 24-hr Min Temp (1am): 60.1°F
24-hr Max Temp (1am): 75.0°F
2018-09-20 00:19 61 56 - 83 90° 5 - 30.14 - 10 FEW011 OVC017 None
2018-09-19 23:52 62 57 - 83 90° 3 - 30.13 30.12 10 BKN013 OVC020 None
2018-09-19 23:35 62 57 - 83 20° 5 - 30.13 - 10 BKN013 OVC018 None
2018-09-19 22:52 62 58 - 86 90° 3 - 30.11 30.11 7 BKN015 OVC021 None

Support USWX by starting your Amazon purchase here.